DLH58H EDDF-MROC
Flight info
| Callsign | DLH58H |
|---|---|
| Flight time | N/A |
| Altitude | 34000 |
| Route | OBOKA2E OBOKA Z28 DIBIR DCT BUDIP DCT GISEB DCT RAVLO Y70 ABTOS N110 ERKIT DCT KUGUR DCT PIKIL/M081F360 DCT 57N020W 58N030W 58N040W 56N050W DCT JANJO/N0469F380 N712B QUBIS DCT BEEKN Q97 ZJAAY Q167 KALDA Q161 PYSTN DCT BGBRD/N0464F400 Q101 SKARP AR22 HOAGG DCT EBAYY Q93 MCLAW Y442 FUNDI/N0453F390 UM335 ALVEK UM328 SELEK/N0455F410 UZ403 PIRAS BARRA3P |
| Aircraft | A343/H-SDE2E3FGHIJ3J5M1P2RWXYZ/LB1D1 |
Departure
| Time | 2026-04-17 01:28 |
|---|---|
| Airport | Frankfurt Main Airport (EDDF) |
Arrival
| Time | N/A |
|---|---|
| Airport | Juan Santamaría International Airport (MROC) |
| Time | Latitude | Longitude | Altitude | Speed | Heading |
|---|---|---|---|---|---|
| 2026-04-17 00:59 | 50.04605 | 8.56781 | 368 ft | 0 kts | 295° |
| 2026-04-17 01:15 | 50.04604 | 8.56783 | 360 ft | 2 kts | 295° |
| 2026-04-17 01:16 | 50.04594 | 8.56819 | 366 ft | 4 kts | 293° |
| 2026-04-17 01:16 | 50.04583 | 8.56855 | 366 ft | 4 kts | 284° |
| 2026-04-17 01:16 | 50.04585 | 8.56890 | 366 ft | 4 kts | 227° |
| 2026-04-17 01:16 | 50.04606 | 8.56911 | 368 ft | 4 kts | 195° |
| 2026-04-17 01:17 | 50.04612 | 8.56913 | 368 ft | 2 kts | 193° |
| 2026-04-17 01:17 | 50.04587 | 8.56904 | 369 ft | 4 kts | 193° |
| 2026-04-17 01:17 | 50.04561 | 8.56894 | 365 ft | 4 kts | 193° |
| 2026-04-17 01:17 | 50.04540 | 8.56887 | 362 ft | 0 kts | 193° |
| 2026-04-17 01:21 | 50.04536 | 8.56885 | 363 ft | 2 kts | 193° |
| 2026-04-17 01:21 | 50.04509 | 8.56875 | 364 ft | 6 kts | 193° |
| 2026-04-17 01:21 | 50.04456 | 8.56856 | 369 ft | 9 kts | 191° |
| 2026-04-17 01:22 | 50.04390 | 8.56840 | 367 ft | 9 kts | 189° |
| 2026-04-17 01:22 | 50.04326 | 8.56821 | 365 ft | 9 kts | 192° |
| 2026-04-17 01:22 | 50.04274 | 8.56814 | 367 ft | 3 kts | 150° |
| 2026-04-17 01:22 | 50.04268 | 8.56856 | 366 ft | 6 kts | 86° |
| 2026-04-17 01:23 | 50.04283 | 8.56937 | 366 ft | 11 kts | 69° |
| 2026-04-17 01:23 | 50.04315 | 8.57067 | 369 ft | 14 kts | 70° |
| 2026-04-17 01:23 | 50.04352 | 8.57225 | 369 ft | 17 kts | 70° |
| 2026-04-17 01:23 | 50.04396 | 8.57402 | 371 ft | 18 kts | 69° |
| 2026-04-17 01:24 | 50.04439 | 8.57581 | 371 ft | 17 kts | 70° |
| 2026-04-17 01:24 | 50.04478 | 8.57749 | 370 ft | 17 kts | 69° |
| 2026-04-17 01:24 | 50.04520 | 8.57921 | 373 ft | 17 kts | 69° |
| 2026-04-17 01:24 | 50.04551 | 8.58052 | 369 ft | 18 kts | 71° |
| 2026-04-17 01:25 | 50.04579 | 8.58176 | 375 ft | 18 kts | 69° |
| 2026-04-17 01:25 | 50.04619 | 8.58339 | 375 ft | 15 kts | 70° |
| 2026-04-17 01:25 | 50.04657 | 8.58496 | 376 ft | 16 kts | 69° |
| 2026-04-17 01:25 | 50.04696 | 8.58657 | 376 ft | 16 kts | 69° |
| 2026-04-17 01:26 | 50.04694 | 8.58741 | 377 ft | 3 kts | 142° |
| 2026-04-17 01:26 | 50.04688 | 8.58747 | 376 ft | 0 kts | 145° |
| 2026-04-17 01:26 | 50.04676 | 8.58759 | 375 ft | 6 kts | 152° |
| 2026-04-17 01:26 | 50.04616 | 8.58749 | 375 ft | 12 kts | 203° |
| 2026-04-17 01:27 | 50.04521 | 8.58643 | 376 ft | 21 kts | 217° |
| 2026-04-17 01:27 | 50.04432 | 8.58378 | 376 ft | 44 kts | 248° |
| 2026-04-17 01:27 | 50.04271 | 8.57683 | 368 ft | 92 kts | 251° |
| 2026-04-17 01:27 | 50.03996 | 8.56531 | 365 ft | 135 kts | 250° |
| 2026-04-17 01:28 | 50.03624 | 8.54979 | 352 ft | 170 kts | 250° |
| 2026-04-17 01:28 | 50.03182 | 8.53174 | 673 ft | 176 kts | 249° |
| 2026-04-17 01:28 | 50.02721 | 8.51401 | 1176 ft | 178 kts | 246° |
| 2026-04-17 01:28 | 50.02083 | 8.49732 | 1563 ft | 185 kts | 230° |
| 2026-04-17 01:29 | 50.01042 | 8.48438 | 1753 ft | 201 kts | 205° |
| 2026-04-17 01:29 | 49.98228 | 8.47505 | 2566 ft | 214 kts | 187° |
| 2026-04-17 01:29 | 49.96745 | 8.47200 | 3155 ft | 216 kts | 189° |
| 2026-04-17 01:30 | 49.95269 | 8.46691 | 3635 ft | 223 kts | 195° |
| 2026-04-17 01:30 | 49.94244 | 8.46241 | 3855 ft | 232 kts | 197° |
| 2026-04-17 01:30 | 49.92670 | 8.45499 | 4316 ft | 241 kts | 199° |
| 2026-04-17 01:30 | 49.91197 | 8.44136 | 4549 ft | 258 kts | 229° |
| 2026-04-17 01:31 | 49.90147 | 8.41803 | 4985 ft | 268 kts | 239° |
| 2026-04-17 01:31 | 49.89206 | 8.39279 | 5632 ft | 269 kts | 242° |
| 2026-04-17 01:31 | 49.88613 | 8.36620 | 6595 ft | 257 kts | 263° |
| 2026-04-17 01:31 | 49.88619 | 8.33897 | 7414 ft | 251 kts | 273° |
| 2026-04-17 01:32 | 49.88770 | 8.31151 | 7810 ft | 263 kts | 274° |
| 2026-04-17 01:32 | 49.88972 | 8.28249 | 8076 ft | 278 kts | 279° |
| 2026-04-17 01:32 | 49.89639 | 8.25393 | 8513 ft | 287 kts | 300° |
| 2026-04-17 01:32 | 49.90777 | 8.22832 | 9090 ft | 290 kts | 305° |
| 2026-04-17 01:33 | 49.91994 | 8.20320 | 9678 ft | 293 kts | 306° |
| 2026-04-17 01:33 | 49.93221 | 8.17786 | 10261 ft | 294 kts | 306° |
| 2026-04-17 01:33 | 49.94582 | 8.15355 | 10587 ft | 305 kts | 315° |
| 2026-04-17 01:33 | 49.96202 | 8.13115 | 10783 ft | 318 kts | 318° |
| 2026-04-17 01:34 | 49.97925 | 8.10843 | 10998 ft | 332 kts | 319° |
| 2026-04-17 01:34 | 49.99715 | 8.08478 | 11208 ft | 344 kts | 318° |
| 2026-04-17 01:34 | 50.01567 | 8.06017 | 11431 ft | 355 kts | 318° |
| 2026-04-17 01:34 | 50.03459 | 8.03494 | 11819 ft | 361 kts | 318° |
| 2026-04-17 01:35 | 50.05368 | 8.00941 | 12336 ft | 363 kts | 318° |
| 2026-04-17 01:35 | 50.07291 | 7.98365 | 12856 ft | 366 kts | 318° |
| 2026-04-17 01:35 | 50.09222 | 7.95774 | 13403 ft | 368 kts | 318° |
| 2026-04-17 01:35 | 50.11165 | 7.93161 | 13945 ft | 370 kts | 318° |
| 2026-04-17 01:36 | 50.13114 | 7.90537 | 14447 ft | 372 kts | 318° |
| 2026-04-17 01:36 | 50.15076 | 7.87893 | 14899 ft | 374 kts | 318° |
| 2026-04-17 01:36 | 50.17050 | 7.85229 | 15385 ft | 376 kts | 318° |
| 2026-04-17 01:36 | 50.19006 | 7.82588 | 15859 ft | 378 kts | 318° |
| 2026-04-17 01:37 | 50.20999 | 7.79894 | 16310 ft | 380 kts | 318° |
| 2026-04-17 01:37 | 50.23002 | 7.77182 | 16785 ft | 382 kts | 317° |
| 2026-04-17 01:37 | 50.25068 | 7.74550 | 17254 ft | 385 kts | 323° |
| 2026-04-17 01:37 | 50.27412 | 7.72479 | 17715 ft | 389 kts | 333° |
| 2026-04-17 01:38 | 50.29891 | 7.70744 | 18182 ft | 392 kts | 334° |
| 2026-04-17 01:38 | 50.32397 | 7.69045 | 18638 ft | 394 kts | 334° |
| 2026-04-17 01:38 | 50.34917 | 7.67335 | 19049 ft | 396 kts | 334° |
| 2026-04-17 01:38 | 50.37451 | 7.65610 | 19464 ft | 398 kts | 334° |
| 2026-04-17 01:39 | 50.39993 | 7.63872 | 19876 ft | 399 kts | 334° |
| 2026-04-17 01:39 | 50.42542 | 7.62120 | 20265 ft | 401 kts | 334° |
| 2026-04-17 01:39 | 50.45103 | 7.60356 | 20672 ft | 403 kts | 334° |
| 2026-04-17 01:39 | 50.47675 | 7.58585 | 21061 ft | 405 kts | 334° |
| 2026-04-17 01:40 | 50.50260 | 7.56801 | 21445 ft | 406 kts | 334° |
| 2026-04-17 01:40 | 50.52854 | 7.55010 | 21823 ft | 408 kts | 334° |
| 2026-04-17 01:40 | 50.55435 | 7.53138 | 22191 ft | 409 kts | 330° |
| 2026-04-17 01:40 | 50.57885 | 7.50861 | 22563 ft | 409 kts | 326° |
| 2026-04-17 01:41 | 50.60283 | 7.48425 | 22927 ft | 411 kts | 325° |
| 2026-04-17 01:41 | 50.62650 | 7.45994 | 23268 ft | 413 kts | 325° |
| 2026-04-17 01:41 | 50.65061 | 7.43516 | 23617 ft | 415 kts | 324° |
| 2026-04-17 01:41 | 50.67488 | 7.41021 | 23930 ft | 417 kts | 324° |
| 2026-04-17 01:42 | 50.69923 | 7.38517 | 24208 ft | 419 kts | 324° |
| 2026-04-17 01:42 | 50.72348 | 7.35966 | 24500 ft | 420 kts | 322° |
| 2026-04-17 01:42 | 50.74574 | 7.32995 | 24774 ft | 419 kts | 313° |
| 2026-04-17 01:42 | 50.76463 | 7.29501 | 25054 ft | 419 kts | 307° |
| 2026-04-17 01:43 | 50.78210 | 7.25816 | 25330 ft | 420 kts | 305° |
| 2026-04-17 01:43 | 50.79898 | 7.22040 | 25609 ft | 421 kts | 304° |
| 2026-04-17 01:43 | 50.81561 | 7.18230 | 25877 ft | 422 kts | 303° |
| 2026-04-17 01:43 | 50.83228 | 7.14396 | 26139 ft | 423 kts | 303° |
| 2026-04-17 01:44 | 50.84905 | 7.10552 | 26411 ft | 425 kts | 304° |
| 2026-04-17 01:44 | 50.86591 | 7.06712 | 26656 ft | 426 kts | 304° |
| 2026-04-17 01:44 | 50.88291 | 7.02858 | 26853 ft | 428 kts | 304° |
| 2026-04-17 01:44 | 50.90003 | 6.98985 | 27086 ft | 430 kts | 304° |
| 2026-04-17 01:45 | 50.91720 | 6.95097 | 27307 ft | 431 kts | 304° |
| 2026-04-17 01:45 | 50.93441 | 6.91205 | 27563 ft | 432 kts | 304° |
| 2026-04-17 01:45 | 50.95169 | 6.87297 | 27791 ft | 433 kts | 304° |
| 2026-04-17 01:45 | 50.96901 | 6.83373 | 28011 ft | 435 kts | 303° |
| 2026-04-17 01:46 | 50.98634 | 6.79438 | 28231 ft | 436 kts | 303° |
| 2026-04-17 01:46 | 51.00372 | 6.75485 | 28452 ft | 437 kts | 303° |
| 2026-04-17 01:46 | 51.02112 | 6.71522 | 28663 ft | 438 kts | 303° |
| 2026-04-17 01:46 | 51.03856 | 6.67539 | 28872 ft | 440 kts | 303° |
| 2026-04-17 01:47 | 51.05603 | 6.63544 | 29078 ft | 441 kts | 303° |
| 2026-04-17 01:47 | 51.07356 | 6.59532 | 29221 ft | 443 kts | 303° |
| 2026-04-17 01:47 | 51.09112 | 6.55504 | 29475 ft | 443 kts | 303° |
| 2026-04-17 01:47 | 51.10867 | 6.51484 | 29801 ft | 441 kts | 303° |
| 2026-04-17 01:48 | 51.12612 | 6.47471 | 30106 ft | 440 kts | 303° |
| 2026-04-17 01:48 | 51.14348 | 6.43464 | 30376 ft | 439 kts | 303° |
| 2026-04-17 01:48 | 51.16080 | 6.39459 | 30606 ft | 439 kts | 303° |
| 2026-04-17 01:48 | 51.17807 | 6.35462 | 30869 ft | 437 kts | 302° |
| 2026-04-17 01:49 | 51.19525 | 6.31481 | 31112 ft | 436 kts | 302° |
| 2026-04-17 01:49 | 51.21241 | 6.27501 | 31315 ft | 435 kts | 302° |
| 2026-04-17 01:49 | 51.22928 | 6.23579 | 31506 ft | 435 kts | 302° |
| 2026-04-17 01:49 | 51.24639 | 6.19600 | 31702 ft | 434 kts | 302° |
| 2026-04-17 01:50 | 51.26347 | 6.15619 | 31846 ft | 435 kts | 302° |
| 2026-04-17 01:50 | 51.28054 | 6.11637 | 32019 ft | 435 kts | 302° |
| 2026-04-17 01:50 | 51.29743 | 6.07634 | 32223 ft | 434 kts | 301° |
| 2026-04-17 01:50 | 51.31394 | 6.03611 | 32403 ft | 433 kts | 301° |
| 2026-04-17 01:51 | 51.33029 | 5.99576 | 32609 ft | 432 kts | 301° |
| 2026-04-17 01:51 | 51.34658 | 5.95545 | 32780 ft | 431 kts | 301° |
| 2026-04-17 01:51 | 51.36288 | 5.91516 | 32957 ft | 431 kts | 301° |
| 2026-04-17 01:51 | 51.38041 | 5.87622 | 33110 ft | 432 kts | 307° |
| 2026-04-17 01:52 | 51.40035 | 5.84007 | 33270 ft | 433 kts | 310° |
| 2026-04-17 01:52 | 51.42089 | 5.80470 | 33423 ft | 433 kts | 310° |
| 2026-04-17 01:52 | 51.44165 | 5.76978 | 33628 ft | 432 kts | 311° |
| 2026-04-17 01:52 | 51.46245 | 5.73516 | 33843 ft | 431 kts | 310° |
| 2026-04-17 01:53 | 51.48325 | 5.70061 | 33964 ft | 431 kts | 310° |
| 2026-04-17 01:53 | 51.50405 | 5.66597 | 34088 ft | 431 kts | 310° |
| 2026-04-17 01:53 | 51.52482 | 5.63130 | 34208 ft | 431 kts | 310° |
| 2026-04-17 01:54 | 51.56568 | 5.56281 | 34237 ft | 419 kts | 310° |
| 2026-04-17 01:54 | 51.60584 | 5.49513 | 34233 ft | 418 kts | 310° |
| 2026-04-17 01:55 | 51.64591 | 5.42733 | 34230 ft | 418 kts | 310° |
| 2026-04-17 01:55 | 51.68596 | 5.35940 | 34230 ft | 418 kts | 310° |
| 2026-04-17 01:56 | 51.72594 | 5.29150 | 34231 ft | 417 kts | 309° |
| 2026-04-17 01:56 | 51.76586 | 5.22344 | 34229 ft | 417 kts | 309° |
| 2026-04-17 01:57 | 51.80575 | 5.15527 | 34227 ft | 418 kts | 309° |
| 2026-04-17 01:57 | 51.84561 | 5.08697 | 34226 ft | 418 kts | 309° |
| 2026-04-17 01:58 | 51.88514 | 5.01903 | 34224 ft | 417 kts | 309° |
| 2026-04-17 01:58 | 51.92516 | 4.94998 | 34220 ft | 417 kts | 309° |
| 2026-04-17 01:59 | 51.96423 | 4.88137 | 34232 ft | 416 kts | 308° |
| 2026-04-17 01:59 | 52.00341 | 4.81220 | 34222 ft | 416 kts | 308° |
| 2026-04-17 02:00 | 52.04258 | 4.74297 | 34228 ft | 416 kts | 308° |
| 2026-04-17 02:00 | 52.08175 | 4.67367 | 34224 ft | 416 kts | 308° |
| 2026-04-17 02:01 | 52.12092 | 4.60420 | 34224 ft | 417 kts | 308° |
| 2026-04-17 02:01 | 52.16003 | 4.53465 | 34222 ft | 417 kts | 308° |
| 2026-04-17 02:02 | 52.19913 | 4.46493 | 34222 ft | 417 kts | 308° |
| 2026-04-17 02:02 | 52.23814 | 4.39518 | 34223 ft | 416 kts | 307° |
| 2026-04-17 02:03 | 52.27704 | 4.32541 | 34221 ft | 415 kts | 307° |
| 2026-04-17 02:03 | 52.31591 | 4.25549 | 34221 ft | 415 kts | 307° |
| 2026-04-17 02:04 | 52.35471 | 4.18549 | 34220 ft | 415 kts | 307° |
| 2026-04-17 02:04 | 52.39347 | 4.11539 | 34210 ft | 415 kts | 307° |
| 2026-04-17 02:05 | 52.43217 | 4.04519 | 34215 ft | 415 kts | 307° |
| 2026-04-17 02:05 | 52.47083 | 3.97487 | 34231 ft | 415 kts | 307° |
| 2026-04-17 02:06 | 52.50942 | 3.90450 | 34211 ft | 415 kts | 307° |
| 2026-04-17 02:06 | 52.54146 | 3.84590 | 34212 ft | 415 kts | 307° |
| 2026-04-17 02:07 | 52.57997 | 3.77527 | 34205 ft | 415 kts | 307° |
| 2026-04-17 02:07 | 52.61843 | 3.70455 | 34203 ft | 415 kts | 307° |
| 2026-04-17 02:08 | 52.66307 | 3.62220 | 34198 ft | 415 kts | 307° |
| 2026-04-17 02:08 | 52.69521 | 3.56275 | 34186 ft | 415 kts | 307° |
| 2026-04-17 02:09 | 52.73353 | 3.49167 | 34190 ft | 415 kts | 306° |
| 2026-04-17 02:09 | 52.77186 | 3.42036 | 34184 ft | 416 kts | 306° |
| 2026-04-17 02:10 | 52.81018 | 3.34889 | 34184 ft | 416 kts | 306° |
| 2026-04-17 02:10 | 52.84850 | 3.27721 | 34179 ft | 416 kts | 306° |
| 2026-04-17 02:11 | 52.88656 | 3.20529 | 34185 ft | 414 kts | 304° |
| 2026-04-17 02:11 | 52.91616 | 3.12570 | 34184 ft | 405 kts | 289° |
| 2026-04-17 02:12 | 52.93238 | 3.03641 | 34178 ft | 402 kts | 281° |
| 2026-04-17 02:12 | 52.94447 | 2.94592 | 34181 ft | 402 kts | 279° |
| 2026-04-17 02:13 | 52.95589 | 2.85570 | 34181 ft | 402 kts | 279° |
| 2026-04-17 02:13 | 52.96749 | 2.76490 | 34175 ft | 402 kts | 279° |
| 2026-04-17 02:14 | 52.97919 | 2.67414 | 34198 ft | 402 kts | 279° |
| 2026-04-17 02:14 | 52.99087 | 2.58331 | 34170 ft | 403 kts | 279° |
| 2026-04-17 02:15 | 53.00248 | 2.49240 | 34174 ft | 402 kts | 279° |
| 2026-04-17 02:15 | 53.01400 | 2.40154 | 34167 ft | 402 kts | 279° |
| 2026-04-17 02:16 | 53.02545 | 2.31070 | 34168 ft | 402 kts | 279° |
| 2026-04-17 02:16 | 53.03683 | 2.21979 | 34162 ft | 402 kts | 279° |
| 2026-04-17 02:17 | 53.04813 | 2.12889 | 34162 ft | 402 kts | 279° |
| 2026-04-17 02:17 | 53.05940 | 2.03797 | 34162 ft | 402 kts | 279° |